createdAt,value
2018-07-09T00:02:05.500Z,18.10
2018-07-09T00:04:40.607Z,18.00
2018-07-09T00:07:15.923Z,17.90
2018-07-09T00:09:50.971Z,17.60
2018-07-09T00:12:26.088Z,17.70
2018-07-09T00:15:01.148Z,17.70
2018-07-09T00:17:36.068Z,17.60
2018-07-09T00:20:11.004Z,17.60
2018-07-09T00:22:46.068Z,17.50
2018-07-09T00:25:21.164Z,17.30
2018-07-09T00:27:56.224Z,17.30
2018-07-09T00:30:31.248Z,17.60
2018-07-09T00:33:06.396Z,17.60
2018-07-09T00:35:41.313Z,17.30
2018-07-09T00:38:16.772Z,17.70
2018-07-09T00:40:51.779Z,17.60
2018-07-09T00:43:27.367Z,17.60
2018-07-09T00:46:02.740Z,17.40
2018-07-09T00:48:37.840Z,17.30
2018-07-09T00:51:13.124Z,17.10
2018-07-09T00:56:22.825Z,16.90
2018-07-09T00:58:57.879Z,16.80
2018-07-09T01:01:33.057Z,16.70
2018-07-09T01:04:08.240Z,16.70
2018-07-09T01:06:43.178Z,17.00
2018-07-09T01:09:18.251Z,17.00
2018-07-09T01:12:03.607Z,17.10
2018-07-09T01:14:39.132Z,17.30
2018-07-09T01:17:14.268Z,16.80
2018-07-09T01:19:50.100Z,16.90
2018-07-09T01:22:25.252Z,17.10
2018-07-09T01:25:00.235Z,16.90
2018-07-09T01:27:35.351Z,17.10
2018-07-09T01:30:13.340Z,17.30
2018-07-09T01:32:48.371Z,17.30
2018-07-09T01:35:23.460Z,17.30
2018-07-09T01:37:58.593Z,17.40
2018-07-09T01:40:33.601Z,16.90
2018-07-09T01:43:08.644Z,16.80
2018-07-09T01:45:43.641Z,16.60
2018-07-09T01:48:18.685Z,16.60
2018-07-09T01:50:53.930Z,16.10
2018-07-09T01:53:29.060Z,16.40
2018-07-09T01:56:04.118Z,16.40
2018-07-09T01:58:39.247Z,16.60
2018-07-09T02:01:14.276Z,16.80
2018-07-09T02:03:49.404Z,16.90
2018-07-09T02:06:24.356Z,16.70
2018-07-09T02:08:59.496Z,16.90
2018-07-09T02:11:34.780Z,16.90
2018-07-09T02:14:09.880Z,16.80
2018-07-09T02:16:45.108Z,16.80
2018-07-09T02:19:20.127Z,16.90
2018-07-09T02:21:55.263Z,16.90
2018-07-09T02:24:30.600Z,16.90
2018-07-09T02:27:05.828Z,16.90
2018-07-09T02:29:40.919Z,17.00
2018-07-09T02:32:15.999Z,17.00
2018-07-09T02:34:51.021Z,16.80
2018-07-09T02:37:25.957Z,16.70
2018-07-09T02:40:01.076Z,16.70
2018-07-09T02:42:36.052Z,16.90
2018-07-09T02:45:11.116Z,16.70
2018-07-09T02:47:46.184Z,17.00
2018-07-09T02:50:21.315Z,16.70
2018-07-09T02:52:56.305Z,17.50
2018-07-09T02:55:31.379Z,20.60
2018-07-09T02:58:06.561Z,19.70
2018-07-09T03:00:41.682Z,18.40
2018-07-09T03:03:16.611Z,17.40
2018-07-09T03:05:51.544Z,17.30
2018-07-09T03:08:26.644Z,17.10
2018-07-09T03:11:01.738Z,17.00
2018-07-09T03:13:36.892Z,16.80
2018-07-09T03:16:11.942Z,16.80
2018-07-09T03:18:47.035Z,16.30
2018-07-09T03:21:21.970Z,16.40
2018-07-09T03:23:56.948Z,16.30
2018-07-09T03:26:31.920Z,16.40
2018-07-09T03:29:07.148Z,16.40
2018-07-09T03:31:42.353Z,16.60
2018-07-09T03:34:17.491Z,16.80
2018-07-09T03:36:52.468Z,16.60
2018-07-09T03:39:27.459Z,16.50
2018-07-09T03:42:02.444Z,16.60
2018-07-09T03:44:37.767Z,16.60
2018-07-09T03:47:12.860Z,16.70
2018-07-09T03:49:47.984Z,16.60
2018-07-09T03:52:23.068Z,16.70
2018-07-09T03:54:58.243Z,16.60
2018-07-09T03:57:33.387Z,16.50
2018-07-09T04:00:08.496Z,16.70
2018-07-09T04:02:43.552Z,16.70
2018-07-09T04:05:18.541Z,16.60
2018-07-09T04:07:53.824Z,16.60
2018-07-09T04:10:28.913Z,16.40
2018-07-09T04:13:04.007Z,16.40
2018-07-09T04:15:39.152Z,16.50
2018-07-09T04:20:48.774Z,16.50
2018-07-09T04:23:23.726Z,16.50
2018-07-09T04:25:58.657Z,16.40
2018-07-09T04:28:33.739Z,16.50
2018-07-09T04:31:08.759Z,16.70
2018-07-09T04:33:43.911Z,17.20
2018-07-09T04:36:18.928Z,17.20
2018-07-09T04:38:54.016Z,17.80
2018-07-09T04:41:29.119Z,18.40
2018-07-09T04:49:13.687Z,19.70
2018-07-09T04:51:48.635Z,20.20
2018-07-09T04:54:23.591Z,20.60
2018-07-09T04:56:58.715Z,21.00
2018-07-09T04:59:33.735Z,20.10
2018-07-09T05:02:08.884Z,20.10
2018-07-09T05:04:43.994Z,21.20
2018-07-09T05:07:19.010Z,20.20
2018-07-09T05:09:53.976Z,21.10
2018-07-09T05:12:29.091Z,21.70
2018-07-09T05:15:04.323Z,22.10
2018-07-09T05:17:39.299Z,22.30
2018-07-09T05:20:14.423Z,22.30
2018-07-09T05:22:49.534Z,20.90
2018-07-09T05:25:24.811Z,21.00
2018-07-09T05:27:59.827Z,21.00
2018-07-09T05:30:35.022Z,21.30
2018-07-09T05:33:10.091Z,20.50
2018-07-09T05:35:45.156Z,20.90
2018-07-09T05:38:20.097Z,20.90
2018-07-09T05:40:56.536Z,20.90
2018-07-09T05:43:31.663Z,20.70
2018-07-09T05:46:07.475Z,20.20
2018-07-09T05:48:42.791Z,20.40
2018-07-09T05:51:17.899Z,20.60
2018-07-09T05:53:53.077Z,19.80
2018-07-09T05:56:28.047Z,19.50
2018-07-09T05:59:03.250Z,20.10
2018-07-09T06:01:38.229Z,20.10
2018-07-09T06:04:13.146Z,21.00
2018-07-09T06:06:48.252Z,20.70
2018-07-09T06:09:23.256Z,20.70
2018-07-09T06:11:58.268Z,20.60
2018-07-09T06:14:33.260Z,20.70
2018-07-09T06:17:08.584Z,20.60
2018-07-09T06:19:43.776Z,19.70
2018-07-09T06:22:18.783Z,19.60
2018-07-09T06:24:53.783Z,19.70
2018-07-09T06:27:28.870Z,19.90
2018-07-09T06:30:03.952Z,19.50
2018-07-09T06:32:39.083Z,19.40
2018-07-09T06:35:14.131Z,19.70
2018-07-09T06:37:49.188Z,19.20
2018-07-09T06:40:24.217Z,19.50
2018-07-09T06:42:59.342Z,19.70
2018-07-09T06:45:34.299Z,19.70
2018-07-09T06:50:44.240Z,20.00
2018-07-09T06:53:19.315Z,19.70
2018-07-09T06:55:54.466Z,20.10
2018-07-09T06:58:29.594Z,19.80
2018-07-09T07:01:05.000Z,20.40
2018-07-09T07:03:39.966Z,20.70
2018-07-09T07:06:15.920Z,20.20
2018-07-09T07:08:51.232Z,20.20
2018-07-09T07:11:26.128Z,20.60
2018-07-09T07:14:01.440Z,21.00
2018-07-09T07:16:36.559Z,21.10
2018-07-09T07:19:11.699Z,20.80
2018-07-09T07:21:46.927Z,21.40
2018-07-09T07:24:22.292Z,21.20
2018-07-09T07:26:57.616Z,21.20
2018-07-09T07:29:32.664Z,21.20
2018-07-09T07:32:07.797Z,21.50
2018-07-09T07:34:42.869Z,21.40
2018-07-09T07:37:18.131Z,21.70
2018-07-09T07:39:53.204Z,21.80
2018-07-09T07:42:28.440Z,21.90
2018-07-09T07:45:03.436Z,21.20
2018-07-09T07:47:38.520Z,21.00
2018-07-09T07:50:13.646Z,21.10
2018-07-09T07:52:48.599Z,21.40
2018-07-09T07:55:23.528Z,21.30
2018-07-09T07:57:58.599Z,21.70
2018-07-09T08:00:33.633Z,21.30
2018-07-09T08:03:08.600Z,21.50
2018-07-09T08:05:43.571Z,21.00
2018-07-09T08:08:19.024Z,21.10
2018-07-09T08:10:54.120Z,21.50
2018-07-09T08:13:29.490Z,21.90
2018-07-09T08:16:04.396Z,22.00
2018-07-09T08:18:39.467Z,21.70
2018-07-09T08:21:14.528Z,21.80
2018-07-09T08:23:52.113Z,22.20
2018-07-09T08:26:27.112Z,22.70
2018-07-09T08:29:02.168Z,22.80
2018-07-09T08:31:37.359Z,22.60
2018-07-09T08:34:12.419Z,22.90
2018-07-09T08:36:47.743Z,23.80
2018-07-09T08:39:22.708Z,24.40
2018-07-09T08:41:57.831Z,24.70
2018-07-09T08:44:33.059Z,24.00
2018-07-09T08:47:08.195Z,24.20
2018-07-09T08:49:43.220Z,24.50
2018-07-09T08:52:18.563Z,24.70
2018-07-09T08:54:53.703Z,24.60
2018-07-09T08:57:28.755Z,24.70
2018-07-09T09:00:04.075Z,25.40
2018-07-09T09:02:39.126Z,25.80
2018-07-09T09:05:14.129Z,26.00
2018-07-09T09:07:49.279Z,26.00
2018-07-09T09:10:24.469Z,25.60
2018-07-09T09:12:59.411Z,25.60
2018-07-09T09:18:09.041Z,24.70
2018-07-09T09:20:44.234Z,25.10
2018-07-09T09:23:19.235Z,25.20
2018-07-09T09:25:54.424Z,24.10
2018-07-09T09:28:29.518Z,23.70
2018-07-09T09:31:04.492Z,23.80
2018-07-09T09:33:39.605Z,24.10
2018-07-09T09:36:14.683Z,24.10
2018-07-09T09:38:49.656Z,23.80
2018-07-09T09:41:24.724Z,23.80
2018-07-09T09:43:59.784Z,23.10
2018-07-09T09:46:34.766Z,23.40
2018-07-09T09:51:45.028Z,23.60
2018-07-09T09:54:20.044Z,23.50
2018-07-09T09:56:55.141Z,23.40
2018-07-09T09:59:30.314Z,23.40
2018-07-09T10:02:05.392Z,23.80
2018-07-09T10:04:40.563Z,23.70
2018-07-09T10:07:15.689Z,23.60
2018-07-09T10:09:50.803Z,23.70
2018-07-09T10:12:25.891Z,23.80
2018-07-09T10:15:00.916Z,23.50
2018-07-09T10:17:36.195Z,23.70
2018-07-09T10:20:11.188Z,23.20
2018-07-09T10:22:46.443Z,23.20
2018-07-09T10:25:21.341Z,23.30
2018-07-09T10:27:56.343Z,24.50
2018-07-09T10:30:31.511Z,24.10
2018-07-09T10:33:06.404Z,23.90
2018-07-09T10:35:41.391Z,23.80
2018-07-09T10:38:16.588Z,23.20
2018-07-09T10:40:51.847Z,23.40
2018-07-09T10:43:26.774Z,23.20
2018-07-09T10:46:01.963Z,23.30
2018-07-09T10:48:37.150Z,23.50
2018-07-09T10:51:12.076Z,23.40
2018-07-09T10:53:48.256Z,23.70
2018-07-09T10:56:23.277Z,23.90
2018-07-09T10:58:58.463Z,23.80
2018-07-09T11:01:34.139Z,23.70
2018-07-09T11:04:09.307Z,23.80
2018-07-09T11:06:44.409Z,23.60
2018-07-09T11:09:19.479Z,23.70
2018-07-09T11:11:54.526Z,23.80
2018-07-09T11:14:29.632Z,23.80
2018-07-09T11:17:04.574Z,23.10
2018-07-09T11:19:39.487Z,23.00
2018-07-09T11:22:14.512Z,22.60
2018-07-09T11:24:49.447Z,22.80
2018-07-09T11:27:24.568Z,23.10
2018-07-09T11:29:59.700Z,22.60
2018-07-09T11:32:34.806Z,22.50
2018-07-09T11:37:44.426Z,22.40
2018-07-09T11:40:19.420Z,22.90
2018-07-09T11:42:54.544Z,22.70
2018-07-09T11:45:29.657Z,22.90
2018-07-09T11:48:04.744Z,23.00
2018-07-09T11:50:39.878Z,23.00
2018-07-09T11:53:14.963Z,23.10
2018-07-09T11:55:50.247Z,22.70
2018-07-09T11:58:25.292Z,23.20
2018-07-09T12:01:00.216Z,23.30
2018-07-09T12:03:35.383Z,23.40
2018-07-09T12:06:10.540Z,23.80
2018-07-09T12:08:45.508Z,23.80
2018-07-09T12:11:20.564Z,23.90
2018-07-09T12:13:55.612Z,23.50
2018-07-09T12:16:30.852Z,23.60
2018-07-09T12:19:05.828Z,23.00
2018-07-09T12:24:29.716Z,23.40
2018-07-09T12:27:04.983Z,23.20
2018-07-09T12:29:40.036Z,23.40
2018-07-09T12:32:15.045Z,23.80
2018-07-09T12:34:50.178Z,23.80
2018-07-09T12:37:25.359Z,23.80
2018-07-09T12:40:00.432Z,23.70
2018-07-09T12:42:35.627Z,23.70
2018-07-09T12:45:10.659Z,23.90
2018-07-09T12:47:45.916Z,24.10
2018-07-09T12:50:21.046Z,24.00
2018-07-09T12:52:56.168Z,23.90
2018-07-09T12:55:31.211Z,24.30
2018-07-09T12:58:06.469Z,24.40
2018-07-09T13:00:41.684Z,24.30
2018-07-09T13:03:16.807Z,24.50
2018-07-09T13:05:51.944Z,24.70
2018-07-09T13:08:27.181Z,24.80
2018-07-09T13:11:02.156Z,24.90
2018-07-09T13:13:37.228Z,24.70
2018-07-09T13:16:12.339Z,24.60
2018-07-09T13:18:47.388Z,24.50
2018-07-09T13:21:22.460Z,24.60
2018-07-09T13:23:57.679Z,24.70
2018-07-09T13:26:32.752Z,24.60
2018-07-09T13:29:07.800Z,24.50
2018-07-09T13:31:43.072Z,24.30
2018-07-09T13:34:18.164Z,24.30
2018-07-09T13:36:53.272Z,24.30
2018-07-09T13:39:28.384Z,24.40
2018-07-09T13:42:03.643Z,24.60
2018-07-09T13:44:38.692Z,24.60
2018-07-09T13:47:13.830Z,24.40
2018-07-09T13:49:48.784Z,24.10
2018-07-09T13:52:23.853Z,24.30
2018-07-09T13:57:33.900Z,24.60
2018-07-09T14:00:09.085Z,24.60
2018-07-09T14:02:44.226Z,24.50
2018-07-09T14:05:19.337Z,24.60
2018-07-09T14:07:54.626Z,24.50
2018-07-09T14:10:29.815Z,24.30
2018-07-09T14:13:04.944Z,24.20
2018-07-09T14:15:39.907Z,24.20
2018-07-09T14:18:14.903Z,24.10
2018-07-09T14:20:49.844Z,24.30
2018-07-09T14:23:24.910Z,24.40
2018-07-09T14:26:00.015Z,24.30
2018-07-09T14:28:35.013Z,24.00
2018-07-09T14:31:10.053Z,24.10
2018-07-09T14:33:45.160Z,24.30
2018-07-09T14:36:20.329Z,24.20
2018-07-09T14:38:55.258Z,23.80
2018-07-09T14:41:30.564Z,23.80
2018-07-09T14:44:05.751Z,23.80
2018-07-09T14:46:40.765Z,23.80
2018-07-09T14:49:15.856Z,23.80
2018-07-09T14:51:51.012Z,23.50
2018-07-09T14:54:26.015Z,23.40
2018-07-09T14:57:01.090Z,23.40
2018-07-09T14:59:36.100Z,23.50
2018-07-09T15:02:11.215Z,23.20
2018-07-09T15:04:46.453Z,23.20
2018-07-09T15:07:25.488Z,23.00
2018-07-09T15:10:00.431Z,22.70
2018-07-09T15:12:35.561Z,23.10
2018-07-09T15:15:10.744Z,23.40
2018-07-09T15:17:45.857Z,23.50
2018-07-09T15:20:21.000Z,23.40
2018-07-09T15:22:55.932Z,23.70
2018-07-09T15:25:31.391Z,23.40
2018-07-09T15:28:06.563Z,23.30
2018-07-09T15:30:41.663Z,23.40
2018-07-09T15:33:16.648Z,23.70
2018-07-09T15:35:51.818Z,23.60
2018-07-09T15:38:26.821Z,23.90
2018-07-09T15:41:01.875Z,24.20
2018-07-09T15:43:48.192Z,24.30
2018-07-09T15:46:23.163Z,24.50
2018-07-09T15:48:58.276Z,24.40
2018-07-09T15:51:33.392Z,23.90
2018-07-09T15:54:08.494Z,23.60
2018-07-09T15:56:43.416Z,23.50
2018-07-09T15:59:18.563Z,23.50
2018-07-09T16:01:53.671Z,23.40
2018-07-09T16:04:28.753Z,23.50
2018-07-09T16:07:03.684Z,23.00
2018-07-09T16:12:13.396Z,23.60
2018-07-09T16:14:48.508Z,23.60
2018-07-09T16:17:23.566Z,23.90
2018-07-09T16:19:58.655Z,23.40
2018-07-09T16:22:33.689Z,23.40
2018-07-09T16:25:08.670Z,23.60
2018-07-09T16:27:43.824Z,23.50
2018-07-09T16:30:18.851Z,23.60
2018-07-09T16:32:53.836Z,23.40
2018-07-09T16:35:28.795Z,23.50
2018-07-09T16:38:03.900Z,23.60
2018-07-09T16:40:38.908Z,23.60
2018-07-09T16:43:13.938Z,23.40
2018-07-09T16:45:48.883Z,23.40
2018-07-09T16:48:23.809Z,23.30
2018-07-09T16:50:58.916Z,23.40
2018-07-09T16:53:34.060Z,23.30
2018-07-09T16:56:09.312Z,23.20
2018-07-09T16:58:44.399Z,23.00
2018-07-09T17:01:19.471Z,23.00
2018-07-09T17:03:54.556Z,22.80
2018-07-09T17:06:29.601Z,22.50
2018-07-09T17:09:05.152Z,22.70
2018-07-09T17:11:40.356Z,22.90
2018-07-09T17:14:15.473Z,23.00
2018-07-09T17:19:25.176Z,23.10
2018-07-09T17:22:00.378Z,22.60
2018-07-09T17:24:35.404Z,22.40
2018-07-09T17:27:10.627Z,22.30
2018-07-09T17:29:45.596Z,22.00
2018-07-09T17:32:20.697Z,22.50
2018-07-09T17:34:55.836Z,22.40
2018-07-09T17:37:30.768Z,22.10
2018-07-09T17:40:06.036Z,21.80
2018-07-09T17:42:41.115Z,21.90
2018-07-09T17:45:16.249Z,21.80
2018-07-09T17:47:51.321Z,21.40
2018-07-09T17:50:26.364Z,21.10
2018-07-09T17:53:01.497Z,21.10
2018-07-09T17:55:36.444Z,21.30
2018-07-09T17:58:11.500Z,21.60
2018-07-09T18:00:46.601Z,21.20
2018-07-09T18:03:21.726Z,21.20
2018-07-09T18:05:56.869Z,21.40
2018-07-09T18:08:32.048Z,21.10
2018-07-09T18:11:07.089Z,20.80
2018-07-09T18:13:42.101Z,20.60
2018-07-09T18:16:17.051Z,20.70
2018-07-09T18:18:52.141Z,21.00
2018-07-09T18:21:27.325Z,21.10
2018-07-09T18:26:37.316Z,21.20
2018-07-09T18:29:12.248Z,21.20
2018-07-09T18:31:47.522Z,20.70
2018-07-09T18:34:22.552Z,20.70
2018-07-09T18:36:57.656Z,20.50
2018-07-09T18:39:36.436Z,20.40
2018-07-09T18:42:11.388Z,20.40
2018-07-09T18:44:46.485Z,20.60
2018-07-09T18:47:21.464Z,20.80
2018-07-09T18:49:56.824Z,20.60
2018-07-09T18:52:32.036Z,20.60
2018-07-09T18:55:07.203Z,20.80
2018-07-09T18:57:42.192Z,20.50
2018-07-09T19:00:21.624Z,20.40
2018-07-09T19:02:56.836Z,20.50
2018-07-09T19:05:46.760Z,20.00
2018-07-09T19:08:21.921Z,19.90
2018-07-09T19:10:57.336Z,19.50
2018-07-09T19:13:32.716Z,19.80
2018-07-09T19:16:07.776Z,19.60
2018-07-09T19:18:54.300Z,19.40
2018-07-09T19:21:41.980Z,19.90
2018-07-09T19:24:16.011Z,19.90
2018-07-09T19:26:50.036Z,19.50
2018-07-09T19:29:24.144Z,20.30
2018-07-09T19:31:58.305Z,20.10
2018-07-09T19:34:32.428Z,19.70
2018-07-09T19:37:06.665Z,20.10
2018-07-09T19:39:40.644Z,19.90
2018-07-09T19:42:14.842Z,20.20
2018-07-09T19:44:48.859Z,19.60
2018-07-09T19:47:22.892Z,20.00
2018-07-09T19:49:56.963Z,19.80
2018-07-09T19:52:30.997Z,19.70
2018-07-09T19:55:05.002Z,20.00
2018-07-09T19:57:39.112Z,20.10
2018-07-09T20:00:13.328Z,19.70
2018-07-09T20:02:47.526Z,20.10
2018-07-09T20:05:22.002Z,19.90
2018-07-09T20:07:56.240Z,19.90
2018-07-09T20:10:35.688Z,19.40
2018-07-09T20:13:15.258Z,19.30
2018-07-09T20:15:54.751Z,19.30
2018-07-09T20:18:28.952Z,19.50
2018-07-09T20:21:03.144Z,19.80
2018-07-09T20:23:37.331Z,19.50
2018-07-09T20:26:11.512Z,19.60
2018-07-09T20:28:45.622Z,20.00
2018-07-09T20:31:20.439Z,20.10
2018-07-09T20:33:54.575Z,19.60
2018-07-09T20:36:28.708Z,19.70
2018-07-09T20:39:03.004Z,19.30
2018-07-09T20:41:36.975Z,19.50
2018-07-09T20:44:11.084Z,19.60
2018-07-09T20:46:45.281Z,19.20
2018-07-09T20:49:19.523Z,20.30
2018-07-09T20:51:53.757Z,21.00
2018-07-09T20:54:27.903Z,21.50
2018-07-09T20:57:02.160Z,21.80
2018-07-09T20:59:36.180Z,22.00
2018-07-09T21:02:10.283Z,22.00
2018-07-09T21:04:44.448Z,22.20
2018-07-09T21:07:18.403Z,22.40
2018-07-09T21:09:52.559Z,22.60
2018-07-09T21:12:26.676Z,22.70
2018-07-09T21:17:35.196Z,23.00
2018-07-09T21:20:10.276Z,23.10
2018-07-09T21:22:44.460Z,23.10
2018-07-09T21:25:18.603Z,23.30
2018-07-09T21:27:52.612Z,23.40
2018-07-09T21:30:26.680Z,23.50
2018-07-09T21:33:00.784Z,23.50
2018-07-09T21:35:34.917Z,23.60
2018-07-09T21:38:09.528Z,23.60
2018-07-09T21:40:43.623Z,23.70
2018-07-09T21:43:17.684Z,23.70
2018-07-09T21:48:32.402Z,23.90
2018-07-09T21:51:06.423Z,23.80
2018-07-09T21:53:40.536Z,23.80
2018-07-09T21:56:14.611Z,23.80
2018-07-09T21:58:48.844Z,23.60
2018-07-09T22:01:22.964Z,23.70
2018-07-09T22:03:57.010Z,23.60
2018-07-09T22:06:31.138Z,23.70
2018-07-09T22:09:05.776Z,23.70
2018-07-09T22:11:39.755Z,23.80
2018-07-09T22:14:13.908Z,23.80
2018-07-09T22:16:47.928Z,23.70
2018-07-09T22:19:22.472Z,23.70
2018-07-09T22:21:56.639Z,23.80
2018-07-09T22:24:30.953Z,23.50
2018-07-09T22:27:04.948Z,23.70
2018-07-09T22:29:39.076Z,23.70
2018-07-09T22:32:14.145Z,23.80
2018-07-09T22:34:49.135Z,23.80
2018-07-09T22:37:24.262Z,23.80
2018-07-09T22:39:59.289Z,23.90
2018-07-09T22:42:34.348Z,24.00
2018-07-09T22:45:09.303Z,23.80
2018-07-09T22:47:44.395Z,23.90
2018-07-09T22:50:19.514Z,23.90
2018-07-09T22:52:54.643Z,24.00
2018-07-09T22:55:41.112Z,24.00
2018-07-09T22:58:16.179Z,23.80
2018-07-09T23:00:51.388Z,23.90
2018-07-09T23:03:26.339Z,23.90
2018-07-09T23:06:01.519Z,24.00
2018-07-09T23:08:36.515Z,24.00
2018-07-09T23:11:31.961Z,23.90
2018-07-09T23:16:47.306Z,24.00
2018-07-09T23:20:34.167Z,24.10
2018-07-09T23:23:08.187Z,24.00
2018-07-09T23:25:42.264Z,24.00
2018-07-09T23:28:16.252Z,24.00
2018-07-09T23:30:50.248Z,24.00
2018-07-09T23:33:24.207Z,24.00
2018-07-09T23:35:58.402Z,24.00
2018-07-09T23:38:32.531Z,24.00
2018-07-09T23:41:06.731Z,23.90
2018-07-09T23:43:41.029Z,23.80
2018-07-09T23:46:15.309Z,23.90
2018-07-09T23:48:49.485Z,24.00
2018-07-09T23:51:23.984Z,23.90
2018-07-09T23:53:58.143Z,24.00
2018-07-09T23:59:47.589Z,24.00
